Flight Track Log - Related Links

Times and Time Zones

All times are in EDT time to prevent confusion due to time zone crossing. See the N848TC flight status page for this flight to view local times or setup timezone preferences in your user account.

Time Position Orientation Groundspeed Altitude Reporting Facility
EDT Latitude Longitude Course Direction KTS MPH feet Rate Location/Type
Sun 11:30:29 AM 26.0856 -80.0436 83° East 256 295 3,800  Level Miami Center
Sun 11:31:12 AM 26.0908 -79.9989 83° East 253 291 5,200 2,419 Climbing Miami Center
Sun 11:31:31 AM 26.0947 -79.9633 83° East 266 306 6,300 2,323 Climbing Miami Center
Sun 11:32:14 AM 26.0989 -79.9131 85° East 283 326 7,600 2,333 Climbing Miami Center
Sun 11:32:25 AM 26.1017 -79.8825 84° East 291 335 8,400 1,619 Climbing Miami Center
Sun 11:33:17 AM 26.1028 -79.8214 89° East 297 342 9,300 1,421 Climbing Miami Center
Sun 11:34:19 AM 26.0728 -79.7044 106° East 324 373 11,100 1,839 Climbing Miami Center
Sun 11:35:21 AM 26.0417 -79.6044 109° East 340 391 13,100 1,984 Climbing Miami Center
Sun 11:36:23 AM 26.0097 -79.5011 109° East 353 406 15,200 2,256 Climbing Miami Center
Sun 11:37:26 AM 25.9644 -79.4075 118° Southeast 346 398 17,800 2,208 Climbing Miami Center
Sun 11:38:28 AM 25.9114 -79.3208 124° Southeast 342 394 19,800 1,984 Climbing Miami Center
Sun 11:39:30 AM 25.8417 -79.2175 127° Southeast 347 399 21,900 1,701 Climbing Miami Center
Sun 11:41:35 AM 25.7258 -79.0406 127° Southeast 353 406 25,100 1,572 Climbing Miami Center
Sun 11:42:37 AM 25.6619 -78.9456 127° Southeast 356 410 26,800 912 Climbing Miami Center
Sun 11:43:40 AM 25.6031 -78.8536 125° Southeast 366 421 27,000 96 Climbing Miami Center
Sun 11:44:42 AM 25.5314 -78.7472 127° Southeast 387 445 27,000  Level Miami Center
Sun 11:45:44 AM 25.4678 -78.6511 126° Southeast 387 445 27,000  Level Miami Center
Sun 11:46:46 AM 25.3956 -78.5458 127° Southeast 387 445 27,000  Level Miami Center
Sun 11:47:49 AM 25.3411 -78.4425 120° Southeast 391 450 27,000  Level Miami Center
Sun 11:48:51 AM 25.2889 -78.3361 118° Southeast 391 450 27,000  Level Miami Center
Sun 11:49:53 AM 25.2314 -78.2206 119° Southeast 391 450 27,000  Level Miami Center
Sun 11:50:56 AM 25.1775 -78.1161 120° Southeast 391 450 27,000  Level Miami Center
Sun 11:51:58 AM 25.1242 -78.0111 119° Southeast 391 450 27,000  Level Miami Center
Sun 11:53:00 AM 25.0653 -77.8972 120° Southeast 391 450 27,000  Level Miami Center
Sun 11:54:02 AM 25.0119 -77.7925 119° Southeast 390 449 27,000  Level Miami Center
Sun 11:55:05 AM 24.9581 -77.6894 120° Southeast 390 449 27,000  Level Miami Center
Sun 11:56:07 AM 24.8986 -77.5761 120° Southeast 390 449 27,000  Level Miami Center
Sun 11:57:09 AM 24.8464 -77.4717 119° Southeast 390 449 27,000  Level Miami Center
Sun 11:58:12 AM 24.7886 -77.3578 119° Southeast 390 449 27,000  Level Miami Center
Sun 11:59:14 AM 24.7347 -77.2544 120° Southeast 390 449 27,000  Level Miami Center
Sun 12:00:16 PM 24.6817 -77.1514 120° Southeast 389 448 27,000  Level Miami Center
Sun 12:01:18 PM 24.6219 -77.0372 120° Southeast 389 448 27,000  Level Miami Center
Sun 12:02:21 PM 24.5678 -76.9342 120° Southeast 389 448 27,000  Level Miami Center
Sun 12:03:23 PM 24.5136 -76.8319 120° Southeast 389 448 27,000  Level Miami Center
Sun 12:04:25 PM 24.4547 -76.7178 120° Southeast 388 447 27,000  Level Miami Center
Sun 12:05:28 PM 24.4017 -76.6125 119° Southeast 390 449 27,000  Level Miami Center
Sun 12:06:30 PM 24.3453 -76.5075 121° Southeast 389 448 27,000  Level Miami Center
Sun 12:07:32 PM 24.2903 -76.4044 120° Southeast 388 447 27,000  Level Miami Center
Sun 12:08:34 PM 24.2364 -76.3003 120° Southeast 389 448 27,000  Level Miami Center
Sun 12:09:37 PM 24.1817 -76.1975 120° Southeast 390 449 27,000  Level Miami Center
Sun 12:10:39 PM 24.1261 -76.0933 120° Southeast 392 451 27,000  Level Miami Center
Sun 12:12:44 PM 24.0044 -75.8656 120° Southeast 392 451 27,000  Level Miami Center
Sun 12:13:46 PM 23.9494 -75.7614 120° Southeast 392 451 27,000  Level Miami Center
Sun 12:14:48 PM 23.8942 -75.6575 120° Southeast 393 452 27,000  Level Miami Center
Sun 12:15:51 PM 23.8386 -75.5525 120° Southeast 393 452 27,000  Level Miami Center
Sun 12:16:53 PM 23.7819 -75.4492 121° Southeast 394 453 27,000  Level Miami Center
Sun 12:17:55 PM 23.7264 -75.3436 120° Southeast 395 455 27,000  Level Miami Center
Sun 12:18:57 PM 23.6583 -75.2192 121° Southeast 395 455 27,000  Level Miami Center
Sun 12:20:00 PM 23.6017 -75.1156 121° Southeast 395 455 27,000  Level Miami Center
Sun 12:21:02 PM 23.5453 -75.0111 120° Southeast 395 455 27,000  Level Miami Center
Sun 12:22:04 PM 23.4897 -74.9072 120° Southeast 395 455 27,000  Level Miami Center
Sun 12:23:07 PM 23.4331 -74.8042 121° Southeast 395 455 27,000  Level Miami Center
Sun 12:24:09 PM 23.3764 -74.7011 121° Southeast 395 455 27,000  Level Miami Center
Sun 12:25:11 PM 23.3094 -74.5775 121° Southeast 395 455 27,000  Level Miami Center
Sun 12:26:14 PM 23.2531 -74.4750 121° Southeast 395 455 27,000  Level Miami Center
Sun 12:27:16 PM 23.1950 -74.3739 122° Southeast 394 453 27,000  Level Miami Center
Sun 12:28:18 PM 23.1397 -74.2717 120° Southeast 394 453 27,000  Level Miami Center
Sun 12:29:21 PM 23.0856 -74.1675 119° Southeast 394 453 27,000  Level Miami Center
Sun 12:30:23 PM 23.0297 -74.0644 120° Southeast 394 453 27,000  Level Miami Center
Sun 12:31:25 PM 22.9706 -73.9350 116° Southeast 395 455 27,000  Level Miami Center
Sun 12:32:27 PM 22.9228 -73.8278 116° Southeast 395 455 27,000  Level Miami Center
Sun 12:33:30 PM 22.8756 -73.7194 115° Southeast 395 455 27,000  Level Miami Center
Sun 12:34:32 PM 22.8294 -73.6114 115° Southeast 395 455 27,000  Level Miami Center
Sun 12:35:34 PM 22.7778 -73.5047 118° Southeast 395 455 27,000  Level Miami Center
Sun 12:36:37 PM 22.7256 -73.3994 118° Southeast 395 455 27,000  Level Miami Center
Sun 12:37:39 PM 22.6653 -73.2744 118° Southeast 395 455 27,000  Level Miami Center
Sun 12:38:41 PM 22.6150 -73.1697 117° Southeast 394 453 27,000  Level Miami Center
Sun 12:39:44 PM 22.5628 -73.0689 119° Southeast 392 451 27,000  Level Miami Center
Sun 12:40:46 PM 22.5056 -72.9697 122° Southeast 391 450 27,000  Level Miami Center
Sun 12:41:48 PM 22.4472 -72.8719 123° Southeast 389 448 27,000  Level Miami Center
Sun 12:42:51 PM 22.3778 -72.7544 123° Southeast 389 448 27,000  Level Miami Center
Sun 12:43:53 PM 22.3194 -72.6572 123° Southeast 389 448 27,000  Level Miami Center
Sun 12:44:55 PM 22.2625 -72.5581 122° Southeast 389 448 27,000  Level Miami Center
Sun 12:45:58 PM 22.2067 -72.4597 122° Southeast 388 447 27,000  Level Miami Center
Sun 12:47:00 PM 22.1492 -72.3608 122° Southeast 388 447 27,000  Level Miami Center
Sun 12:48:02 PM 22.0803 -72.2442 122° Southeast 387 445 27,000  Level Miami Center
Sun 12:49:05 PM 22.0225 -72.1467 123° Southeast 387 445 27,000  Level Miami Center
Sun 12:50:07 PM 21.9594 -72.0531 126° Southeast 387 445 27,000  Level Miami Center
Sun 12:51:09 PM 21.8814 -71.9733 137° Southeast 385 443 27,000  Level Miami Center
Sun 12:52:12 PM 21.8022 -71.8958 138° Southeast 385 443 27,000  Level Miami Center
Sun 12:53:14 PM 21.7236 -71.8181 137° Southeast 385 443 27,000  Level Miami Center
Sun 12:54:16 PM 21.6289 -71.7250 138° Southeast 384 442 27,000  Level Miami Center
Sun 12:55:19 PM 21.5506 -71.6456 137° Southeast 385 443 27,000  Level Miami Center
Sun 12:56:21 PM 21.4769 -71.5625 134° Southeast 385 443 27,000  Level Miami Center
Sun 12:57:23 PM 21.4044 -71.4775 132° Southeast 385 443 27,000  Level Miami Center
Sun 12:58:26 PM 21.3192 -71.3747 132° Southeast 385 443 27,000  Level Miami Center
Sun 12:59:28 PM 21.2481 -71.2886 132° Southeast 386 444 27,000  Level Miami Center
Sun 01:00:30 PM 21.1797 -71.1994 129° Southeast 388 447 27,000  Level Miami Center
Sun 01:01:33 PM 21.1153 -71.1078 127° Southeast 388 447 27,000  Level Miami Center
Sun 01:02:35 PM 21.0414 -70.9928 125° Southeast 388 447 27,000  Level Miami Center
Sun 01:03:37 PM 20.9808 -70.8947 123° Southeast 390 449 27,000  Level Miami Center
Sun 01:05:42 PM 20.8636 -70.6969 122° Southeast 391 450 27,000  Level Miami Center
Sun 01:06:44 PM 20.8075 -70.5961 121° Southeast 391 450 27,000  Level Miami Center
Sun 01:07:46 PM 20.7431 -70.4739 119° Southeast 391 450 27,000  Level Miami Center
Sun 01:08:49 PM 20.6892 -70.3719 119° Southeast 391 450 27,000  Level Miami Center
Sun 01:09:51 PM 20.6469 -70.2658 113° Southeast 391 450 27,000  Level Miami Center
Sun 01:11:56 PM 20.5606 -70.0494 116° Southeast 394 453 27,000  Level Miami Center
Sun 01:12:58 PM 20.5144 -69.9450 115° Southeast 394 453 27,000  Level Miami Center
Sun 01:14:00 PM 20.4678 -69.8133 111° Southeast 394 453 27,000  Level Miami Center
Sun 01:15:03 PM 20.4156 -69.7086 118° Southeast 395 455 27,000  Level Miami Center
Sun 01:16:05 PM 20.3567 -69.6108 123° Southeast 395 455 27,000  Level Miami Center
Sun 01:17:07 PM 20.2933 -69.5172 126° Southeast 394 453 27,000  Level Miami Center
Sun 01:18:10 PM 20.2369 -69.4189 121° Southeast 393 452 27,000  Level Miami Center
Sun 01:20:20 PM 20.1167 -69.2000 120° Southeast 390 449 27,000  Level San Center
Sun 01:21:17 PM 20.0661 -69.0975 118° Southeast 392 451 27,000  Level Miami Center
Sun 01:22:19 PM 20.0125 -68.9967 119° Southeast 392 451 27,000  Level Miami Center
Sun 01:23:21 PM 19.9589 -68.8967 120° Southeast 392 451 27,000  Level Miami Center
Sun 01:24:24 PM 19.8917 -68.7792 121° Southeast 391 450 27,000  Level Miami Center
Sun 01:26:21 PM 19.7833 -68.6000 123° Southeast 390 449 27,000  Level San Center
Sun 01:27:22 PM 19.7333 -68.5000 118° Southeast 390 449 27,000  Level San Center
Sun 01:28:22 PM 19.6833 -68.4000 118° Southeast 390 449 27,000  Level San Center
Sun 01:29:22 PM 19.6167 -68.3000 125° Southeast 380 437 27,000  Level San Center
Sun 01:30:22 PM 19.5667 -68.2000 118° Southeast 390 449 27,000  Level San Center
Sun 01:31:22 PM 19.5167 -68.1000 118° Southeast 380 437 27,000  Level San Center
Sun 01:32:22 PM 19.4667 -68.0000 118° Southeast 380 437 27,000  Level San Center
Sun 01:33:22 PM 19.4167 -67.9000 118° Southeast 390 449 27,000  Level San Center
Sun 01:34:23 PM 19.3833 -67.7833 107° East 390 449 27,000  Level San Center
Sun 01:35:23 PM 19.3500 -67.6667 107° East 390 449 27,000  Level San Center
Sun 01:36:23 PM 19.3167 -67.5667 109° East 390 449 27,000  Level San Center
Sun 01:37:23 PM 19.2833 -67.4500 107° East 390 449 27,000  Level San Center
Sun 01:38:23 PM 19.2667 -67.3500 100° East 390 449 27,000  Level San Center
Sun 01:39:23 PM 19.2333 -67.2333 107° East 390 449 27,000  Level San Center
Sun 01:41:23 PM 19.1667 -67.0167 108° East 390 449 27,000  Level San Center
Sun 01:42:23 PM 19.1333 -66.8833 105° East 390 449 27,000  Level San Center
Sun 01:43:24 PM 19.1000 -66.7833 109° East 380 437 27,000 -248 Level San Center
Sun 01:44:24 PM 19.0667 -66.6667 107° East 390 449 26,500 -833 Descending San Center
Sun 01:46:24 PM 19.0000 -66.4333 107° East 420 483 24,500 -1,133 Descending San Center
Sun 01:47:24 PM 18.9667 -66.3167 107° East 420 483 23,100 -1,400 Descending San Center
Sun 01:48:24 PM 18.9333 -66.2000 107° East 420 483 21,700 -1,425 Descending San Center
Sun 01:50:25 PM 18.8667 -65.9667 107° East 410 472 18,800 -1,425 Descending San Center
Sun 01:51:25 PM 18.8333 -65.8500 107° East 400 460 17,400 -1,450 Descending San Center
Sun 01:52:25 PM 18.8000 -65.7500 109° East 390 449 15,900 -1,450 Descending San Center
Sun 01:53:25 PM 18.7667 -65.6500 109° East 350 403 14,500 -1,400 Descending San Center
Sun 01:54:25 PM 18.7500 -65.5500 100° East 340 391 13,100 -1,450 Descending San Center
Sun 01:55:25 PM 18.7167 -65.4500 109° East 330 380 11,600 -1,300 Descending San Center
Sun 01:57:25 PM 18.6500 -65.2833 108° East 320 368 9,200 -1,245 Descending San Center
Sun 01:59:26 PM 18.5667 -65.1333 109° East 260 299 6,600 -1,094 Descending San Center
Sun 02:00:26 PM 18.5333 -65.0667 118° Southeast 280 322 5,900 -800 Descending San Center
Sun 02:01:26 PM 18.5000 -65.0000 118° Southeast 270 311 5,000 -867 Descending San Center
Sun 02:03:26 PM 18.4167 -64.8667 123° Southeast 250 288 3,300 -600 Descending San Center
Sun 02:04:26 PM 18.3833 -64.8167 125° Southeast 240 276 3,200 -100 Descending San Center

Login

Don't have an account? Register now (free) for customized features, flight alerts, and more!